sensor_id;sensor_type;location;lat;lon;timestamp;pressure;altitude;pressure_sealevel;temperature;humidity
55277;BME280;41136;51.478;-2.610;2023-03-01T00:01:35;102469.59;;;5.45;100.00
55277;BME280;41136;51.478;-2.610;2023-03-01T00:04:00;102474.68;;;5.48;100.00
55277;BME280;41136;51.478;-2.610;2023-03-01T00:06:26;102474.33;;;5.98;100.00
55277;BME280;41136;51.478;-2.610;2023-03-01T00:08:51;102470.59;;;5.49;100.00
55277;BME280;41136;51.478;-2.610;2023-03-01T00:11:18;102471.64;;;5.43;100.00
55277;BME280;41136;51.478;-2.610;2023-03-01T00:13:43;102471.04;;;6.31;100.00
55277;BME280;41136;51.478;-2.610;2023-03-01T00:16:10;102472.39;;;5.65;100.00
55277;BME280;41136;51.478;-2.610;2023-03-01T00:18:33;102469.05;;;5.18;100.00
55277;BME280;41136;51.478;-2.610;2023-03-01T00:20:58;102474.31;;;5.21;100.00
55277;BME280;41136;51.478;-2.610;2023-03-01T00:23:24;102470.88;;;5.54;100.00
55277;BME280;41136;51.478;-2.610;2023-03-01T00:25:50;102470.51;;;5.52;100.00
55277;BME280;41136;51.478;-2.610;2023-03-01T00:28:15;102470.08;;;5.57;100.00
55277;BME280;41136;51.478;-2.610;2023-03-01T00:30:40;102464.02;;;5.74;100.00
55277;BME280;41136;51.478;-2.610;2023-03-01T00:33:06;102465.65;;;5.24;100.00
55277;BME280;41136;51.478;-2.610;2023-03-01T00:35:32;102465.21;;;6.11;100.00
55277;BME280;41136;51.478;-2.610;2023-03-01T00:37:57;102460.43;;;4.78;100.00
55277;BME280;41136;51.478;-2.610;2023-03-01T00:40:22;102457.16;;;5.36;100.00
55277;BME280;41136;51.478;-2.610;2023-03-01T00:42:47;102459.75;;;5.43;100.00
55277;BME280;41136;51.478;-2.610;2023-03-01T00:45:13;102464.31;;;5.58;100.00
55277;BME280;41136;51.478;-2.610;2023-03-01T00:47:38;102465.40;;;6.05;100.00
55277;BME280;41136;51.478;-2.610;2023-03-01T00:50:04;102470.53;;;5.38;100.00
55277;BME280;41136;51.478;-2.610;2023-03-01T00:52:29;102463.86;;;5.85;100.00
55277;BME280;41136;51.478;-2.610;2023-03-01T00:54:54;102469.66;;;4.89;100.00
55277;BME280;41136;51.478;-2.610;2023-03-01T00:57:20;102469.05;;;5.58;100.00
55277;BME280;41136;51.478;-2.610;2023-03-01T00:59:45;102459.74;;;5.10;100.00
55277;BME280;41136;51.478;-2.610;2023-03-01T01:02:11;102469.35;;;5.25;100.00
55277;BME280;41136;51.478;-2.610;2023-03-01T01:04:36;102466.23;;;5.41;100.00
55277;BME280;41136;51.478;-2.610;2023-03-01T01:07:01;102467.79;;;6.29;100.00
55277;BME280;41136;51.478;-2.610;2023-03-01T01:09:27;102470.81;;;5.78;100.00
55277;BME280;41136;51.478;-2.610;2023-03-01T01:11:52;102470.42;;;4.83;100.00
55277;BME280;41136;51.478;-2.610;2023-03-01T01:14:18;102471.20;;;5.43;100.00
55277;BME280;41136;51.478;-2.610;2023-03-01T01:16:44;102465.49;;;5.19;100.00
55277;BME280;41136;51.478;-2.610;2023-03-01T01:19:09;102472.69;;;5.19;100.00
55277;BME280;41136;51.478;-2.610;2023-03-01T01:21:34;102466.19;;;5.11;100.00
55277;BME280;41136;51.478;-2.610;2023-03-01T01:24:00;102467.82;;;4.60;100.00
55277;BME280;41136;51.478;-2.610;2023-03-01T01:26:27;102465.66;;;4.34;100.00
55277;BME280;41136;51.478;-2.610;2023-03-01T01:28:51;102465.91;;;5.17;100.00
55277;BME280;41136;51.478;-2.610;2023-03-01T01:31:17;102467.10;;;5.61;100.00
55277;BME280;41136;51.478;-2.610;2023-03-01T01:33:41;102462.71;;;5.57;100.00
55277;BME280;41136;51.478;-2.610;2023-03-01T01:36:08;102463.34;;;5.89;100.00
55277;BME280;41136;51.478;-2.610;2023-03-01T01:38:32;102463.22;;;6.25;100.00
55277;BME280;41136;51.478;-2.610;2023-03-01T01:40:58;102461.34;;;6.28;100.00
55277;BME280;41136;51.478;-2.610;2023-03-01T01:43:25;102460.61;;;6.00;100.00
55277;BME280;41136;51.478;-2.610;2023-03-01T01:49:15;102450.84;;;5.92;98.76
55277;BME280;41136;51.478;-2.610;2023-03-01T01:51:37;102447.27;;;5.93;97.00
55277;BME280;41136;51.478;-2.610;2023-03-01T01:54:01;102445.22;;;6.27;94.65
55277;BME280;41136;51.478;-2.610;2023-03-01T01:56:24;102441.85;;;6.54;93.28
55277;BME280;41136;51.478;-2.610;2023-03-01T01:58:49;102438.27;;;6.75;94.84
55277;BME280;41136;51.478;-2.610;2023-03-01T02:01:14;102436.19;;;6.98;96.94
55277;BME280;41136;51.478;-2.610;2023-03-01T02:03:43;102429.96;;;6.68;97.04
55277;BME280;41136;51.478;-2.610;2023-03-01T02:06:10;102429.77;;;6.42;98.19
55277;BME280;41136;51.478;-2.610;2023-03-01T02:08:33;102428.49;;;6.34;99.68
55277;BME280;41136;51.478;-2.610;2023-03-01T02:10:57;102428.22;;;6.12;99.36
55277;BME280;41136;51.478;-2.610;2023-03-01T02:13:21;102425.37;;;6.38;99.71
55277;BME280;41136;51.478;-2.610;2023-03-01T02:15:47;102422.68;;;6.47;99.17
55277;BME280;41136;51.478;-2.610;2023-03-01T02:18:16;102418.73;;;7.01;98.94
55277;BME280;41136;51.478;-2.610;2023-03-01T02:20:44;102415.21;;;6.68;100.00
55277;BME280;41136;51.478;-2.610;2023-03-01T02:23:03;102410.89;;;6.47;100.00
55277;BME280;41136;51.478;-2.610;2023-03-01T02:25:35;102416.15;;;6.20;100.00
55277;BME280;41136;51.478;-2.610;2023-03-01T02:27:58;102409.05;;;6.57;100.00
55277;BME280;41136;51.478;-2.610;2023-03-01T02:30:21;102403.41;;;6.97;100.00
55277;BME280;41136;51.478;-2.610;2023-03-01T02:32:45;102401.83;;;6.07;100.00
55277;BME280;41136;51.478;-2.610;2023-03-01T02:35:13;102402.62;;;6.08;100.00
55277;BME280;41136;51.478;-2.610;2023-03-01T02:37:36;102399.53;;;6.30;100.00
55277;BME280;41136;51.478;-2.610;2023-03-01T02:40:05;102403.08;;;5.70;100.00
55277;BME280;41136;51.478;-2.610;2023-03-01T02:42:31;102401.24;;;5.56;100.00
55277;BME280;41136;51.478;-2.610;2023-03-01T02:44:52;102402.91;;;5.92;100.00
55277;BME280;41136;51.478;-2.610;2023-03-01T02:47:17;102398.79;;;6.80;100.00
55277;BME280;41136;51.478;-2.610;2023-03-01T02:49:43;102398.70;;;5.90;100.00
55277;BME280;41136;51.478;-2.610;2023-03-01T02:52:21;102387.85;;;6.68;100.00
55277;BME280;41136;51.478;-2.610;2023-03-01T02:54:38;102386.12;;;6.28;100.00
55277;BME280;41136;51.478;-2.610;2023-03-01T02:57:00;102382.40;;;6.23;100.00
55277;BME280;41136;51.478;-2.610;2023-03-01T02:59:28;102377.41;;;6.40;100.00
55277;BME280;41136;51.478;-2.610;2023-03-01T03:01:50;102378.01;;;6.38;100.00
55277;BME280;41136;51.478;-2.610;2023-03-01T03:04:18;102380.26;;;6.31;100.00
55277;BME280;41136;51.478;-2.610;2023-03-01T03:06:41;102379.31;;;6.57;100.00
55277;BME280;41136;51.478;-2.610;2023-03-01T03:09:07;102380.11;;;6.82;100.00
55277;BME280;41136;51.478;-2.610;2023-03-01T03:11:32;102376.83;;;6.84;100.00
55277;BME280;41136;51.478;-2.610;2023-03-01T03:13:57;102379.49;;;6.57;100.00
55277;BME280;41136;51.478;-2.610;2023-03-01T03:16:23;102384.03;;;6.29;100.00
55277;BME280;41136;51.478;-2.610;2023-03-01T03:18:48;102383.10;;;6.90;100.00
55277;BME280;41136;51.478;-2.610;2023-03-01T03:21:14;102381.57;;;6.83;100.00
55277;BME280;41136;51.478;-2.610;2023-03-01T03:23:39;102378.33;;;6.71;100.00
55277;BME280;41136;51.478;-2.610;2023-03-01T03:26:05;102375.34;;;6.59;100.00
55277;BME280;41136;51.478;-2.610;2023-03-01T03:28:30;102372.91;;;7.11;100.00
55277;BME280;41136;51.478;-2.610;2023-03-01T03:30:56;102367.47;;;6.79;100.00
55277;BME280;41136;51.478;-2.610;2023-03-01T03:33:21;102364.45;;;6.02;100.00
55277;BME280;41136;51.478;-2.610;2023-03-01T03:35:48;102360.08;;;4.87;100.00
55277;BME280;41136;51.478;-2.610;2023-03-01T03:38:15;102357.59;;;6.25;100.00
55277;BME280;41136;51.478;-2.610;2023-03-01T03:40:39;102357.79;;;6.07;100.00
55277;BME280;41136;51.478;-2.610;2023-03-01T03:43:05;102359.64;;;6.53;100.00
55277;BME280;41136;51.478;-2.610;2023-03-01T03:45:28;102360.07;;;6.70;100.00
55277;BME280;41136;51.478;-2.610;2023-03-01T03:47:54;102359.77;;;7.21;99.89
55277;BME280;41136;51.478;-2.610;2023-03-01T03:50:19;102355.61;;;6.43;98.68
55277;BME280;41136;51.478;-2.610;2023-03-01T03:52:45;102350.63;;;7.05;97.57
55277;BME280;41136;51.478;-2.610;2023-03-01T03:55:12;102352.34;;;6.94;96.90
55277;BME280;41136;51.478;-2.610;2023-03-01T03:57:36;102350.98;;;6.90;97.17
55277;BME280;41136;51.478;-2.610;2023-03-01T04:00:01;102353.88;;;6.39;98.20
55277;BME280;41136;51.478;-2.610;2023-03-01T04:02:26;102352.83;;;5.51;100.00
55277;BME280;41136;51.478;-2.610;2023-03-01T04:04:52;102351.60;;;6.59;100.00
55277;BME280;41136;51.478;-2.610;2023-03-01T04:07:17;102345.28;;;7.33;97.07
55277;BME280;41136;51.478;-2.610;2023-03-01T04:09:43;102343.32;;;6.79;96.73
55277;BME280;41136;51.478;-2.610;2023-03-01T04:12:08;102344.81;;;6.13;99.21
55277;BME280;41136;51.478;-2.610;2023-03-01T04:14:34;102342.87;;;6.01;99.73
55277;BME280;41136;51.478;-2.610;2023-03-01T04:16:59;102342.15;;;6.45;98.83
55277;BME280;41136;51.478;-2.610;2023-03-01T04:19:24;102340.96;;;7.37;96.39
55277;BME280;41136;51.478;-2.610;2023-03-01T04:21:50;102345.12;;;6.41;97.60
55277;BME280;41136;51.478;-2.610;2023-03-01T04:24:15;102344.00;;;5.30;100.00
55277;BME280;41136;51.478;-2.610;2023-03-01T04:26:41;102344.84;;;6.12;100.00
55277;BME280;41136;51.478;-2.610;2023-03-01T04:29:06;102342.71;;;5.51;100.00
55277;BME280;41136;51.478;-2.610;2023-03-01T04:31:32;102343.27;;;5.80;100.00
55277;BME280;41136;51.478;-2.610;2023-03-01T04:33:57;102342.94;;;5.61;100.00
55277;BME280;41136;51.478;-2.610;2023-03-01T04:36:24;102342.80;;;5.89;100.00
55277;BME280;41136;51.478;-2.610;2023-03-01T04:38:48;102344.37;;;5.77;100.00
55277;BME280;41136;51.478;-2.610;2023-03-01T04:41:15;102343.25;;;4.48;100.00
55277;BME280;41136;51.478;-2.610;2023-03-01T04:43:39;102342.51;;;5.18;100.00
55277;BME280;41136;51.478;-2.610;2023-03-01T04:46:06;102338.55;;;4.37;100.00
55277;BME280;41136;51.478;-2.610;2023-03-01T04:48:30;102336.79;;;4.68;100.00
55277;BME280;41136;51.478;-2.610;2023-03-01T04:50:55;102335.38;;;4.80;100.00
55277;BME280;41136;51.478;-2.610;2023-03-01T04:53:20;102335.65;;;4.71;100.00
55277;BME280;41136;51.478;-2.610;2023-03-01T04:55:46;102332.57;;;4.61;100.00
55277;BME280;41136;51.478;-2.610;2023-03-01T04:58:11;102327.82;;;4.14;100.00
55277;BME280;41136;51.478;-2.610;2023-03-01T05:00:37;102327.42;;;4.13;100.00
55277;BME280;41136;51.478;-2.610;2023-03-01T05:03:02;102324.03;;;3.72;100.00
55277;BME280;41136;51.478;-2.610;2023-03-01T05:05:31;102326.31;;;4.02;100.00
55277;BME280;41136;51.478;-2.610;2023-03-01T05:07:55;102332.86;;;4.55;100.00
55277;BME280;41136;51.478;-2.610;2023-03-01T05:10:18;102331.42;;;3.66;100.00
55277;BME280;41136;51.478;-2.610;2023-03-01T05:12:44;102333.56;;;4.63;100.00
55277;BME280;41136;51.478;-2.610;2023-03-01T05:15:10;102326.72;;;4.39;100.00
55277;BME280;41136;51.478;-2.610;2023-03-01T05:17:35;102329.28;;;3.99;100.00
55277;BME280;41136;51.478;-2.610;2023-03-01T05:20:00;102325.52;;;3.82;100.00
55277;BME280;41136;51.478;-2.610;2023-03-01T05:22:26;102323.75;;;3.93;100.00
55277;BME280;41136;51.478;-2.610;2023-03-01T05:24:51;102318.54;;;4.52;100.00
55277;BME280;41136;51.478;-2.610;2023-03-01T05:27:17;102316.70;;;4.49;100.00
55277;BME280;41136;51.478;-2.610;2023-03-01T05:29:42;102312.46;;;5.17;100.00
55277;BME280;41136;51.478;-2.610;2023-03-01T05:32:07;102308.91;;;4.34;100.00
55277;BME280;41136;51.478;-2.610;2023-03-01T05:34:34;102304.89;;;4.44;100.00
55277;BME280;41136;51.478;-2.610;2023-03-01T05:36:59;102309.30;;;4.27;100.00
55277;BME280;41136;51.478;-2.610;2023-03-01T05:39:27;102310.60;;;4.20;100.00
55277;BME280;41136;51.478;-2.610;2023-03-01T05:41:53;102315.92;;;3.41;100.00
55277;BME280;41136;51.478;-2.610;2023-03-01T05:44:15;102317.07;;;3.44;100.00
55277;BME280;41136;51.478;-2.610;2023-03-01T05:46:40;102320.67;;;3.68;100.00
55277;BME280;41136;51.478;-2.610;2023-03-01T05:49:06;102319.71;;;3.61;100.00
55277;BME280;41136;51.478;-2.610;2023-03-01T05:51:31;102318.98;;;3.89;100.00
55277;BME280;41136;51.478;-2.610;2023-03-01T05:53:57;102316.14;;;3.50;100.00
55277;BME280;41136;51.478;-2.610;2023-03-01T05:56:22;102318.60;;;3.92;100.00
55277;BME280;41136;51.478;-2.610;2023-03-01T05:58:48;102320.79;;;5.07;100.00
55277;BME280;41136;51.478;-2.610;2023-03-01T06:01:13;102316.44;;;4.86;100.00
55277;BME280;41136;51.478;-2.610;2023-03-01T06:03:38;102313.79;;;4.16;100.00
55277;BME280;41136;51.478;-2.610;2023-03-01T06:06:04;102312.77;;;3.94;100.00
55277;BME280;41136;51.478;-2.610;2023-03-01T06:08:29;102311.89;;;3.21;100.00
55277;BME280;41136;51.478;-2.610;2023-03-01T06:10:55;102304.48;;;3.95;100.00
55277;BME280;41136;51.478;-2.610;2023-03-01T06:13:21;102299.59;;;4.27;100.00
55277;BME280;41136;51.478;-2.610;2023-03-01T06:15:46;102300.51;;;4.79;100.00
55277;BME280;41136;51.478;-2.610;2023-03-01T06:18:11;102299.15;;;5.29;100.00
55277;BME280;41136;51.478;-2.610;2023-03-01T06:20:36;102296.05;;;4.01;100.00
55277;BME280;41136;51.478;-2.610;2023-03-01T06:23:02;102298.48;;;3.96;100.00
55277;BME280;41136;51.478;-2.610;2023-03-01T06:25:28;102302.48;;;3.56;100.00
55277;BME280;41136;51.478;-2.610;2023-03-01T06:27:53;102306.83;;;3.57;100.00
55277;BME280;41136;51.478;-2.610;2023-03-01T06:30:20;102310.13;;;3.78;100.00
55277;BME280;41136;51.478;-2.610;2023-03-01T06:32:44;102311.02;;;4.31;100.00
55277;BME280;41136;51.478;-2.610;2023-03-01T06:35:10;102314.04;;;5.04;100.00
55277;BME280;41136;51.478;-2.610;2023-03-01T06:37:35;102311.06;;;3.69;100.00
55277;BME280;41136;51.478;-2.610;2023-03-01T06:40:00;102310.98;;;3.79;100.00
55277;BME280;41136;51.478;-2.610;2023-03-01T06:42:26;102310.88;;;5.44;100.00
55277;BME280;41136;51.478;-2.610;2023-03-01T06:44:51;102313.66;;;5.03;100.00
55277;BME280;41136;51.478;-2.610;2023-03-01T06:47:16;102311.37;;;4.90;100.00
55277;BME280;41136;51.478;-2.610;2023-03-01T06:49:42;102309.24;;;4.77;100.00
55277;BME280;41136;51.478;-2.610;2023-03-01T06:52:07;102313.54;;;3.33;100.00
55277;BME280;41136;51.478;-2.610;2023-03-01T06:54:33;102313.63;;;4.90;100.00
55277;BME280;41136;51.478;-2.610;2023-03-01T06:56:58;102312.95;;;4.84;100.00
55277;BME280;41136;51.478;-2.610;2023-03-01T06:59:24;102315.21;;;5.08;100.00
55277;BME280;41136;51.478;-2.610;2023-03-01T07:01:49;102316.93;;;4.18;100.00
55277;BME280;41136;51.478;-2.610;2023-03-01T07:04:14;102314.96;;;5.89;100.00
55277;BME280;41136;51.478;-2.610;2023-03-01T07:06:40;102317.38;;;5.64;100.00
55277;BME280;41136;51.478;-2.610;2023-03-01T07:09:05;102320.18;;;4.72;100.00
55277;BME280;41136;51.478;-2.610;2023-03-01T07:11:31;102317.24;;;5.12;100.00
55277;BME280;41136;51.478;-2.610;2023-03-01T07:13:56;102313.52;;;6.17;100.00
55277;BME280;41136;51.478;-2.610;2023-03-01T07:16:22;102318.65;;;6.22;100.00
55277;BME280;41136;51.478;-2.610;2023-03-01T07:18:47;102315.77;;;6.47;100.00
55277;BME280;41136;51.478;-2.610;2023-03-01T07:21:14;102318.30;;;7.08;100.00
55277;BME280;41136;51.478;-2.610;2023-03-01T07:23:38;102319.96;;;6.82;100.00
55277;BME280;41136;51.478;-2.610;2023-03-01T07:26:04;102324.20;;;6.96;100.00
55277;BME280;41136;51.478;-2.610;2023-03-01T07:28:29;102329.39;;;6.53;100.00
55277;BME280;41136;51.478;-2.610;2023-03-01T07:30:55;102329.97;;;5.94;100.00
55277;BME280;41136;51.478;-2.610;2023-03-01T07:33:20;102335.38;;;6.09;100.00
55277;BME280;41136;51.478;-2.610;2023-03-01T07:35:45;102337.21;;;6.37;100.00
55277;BME280;41136;51.478;-2.610;2023-03-01T07:38:11;102340.80;;;5.18;100.00
55277;BME280;41136;51.478;-2.610;2023-03-01T07:40:36;102342.57;;;5.28;100.00
55277;BME280;41136;51.478;-2.610;2023-03-01T07:43:02;102344.60;;;5.59;100.00
55277;BME280;41136;51.478;-2.610;2023-03-01T07:45:28;102344.00;;;6.10;100.00
55277;BME280;41136;51.478;-2.610;2023-03-01T07:47:53;102348.03;;;5.84;100.00
55277;BME280;41136;51.478;-2.610;2023-03-01T07:50:18;102348.95;;;6.52;100.00
55277;BME280;41136;51.478;-2.610;2023-03-01T07:52:45;102350.71;;;6.80;100.00
55277;BME280;41136;51.478;-2.610;2023-03-01T07:55:09;102354.36;;;6.43;100.00
55277;BME280;41136;51.478;-2.610;2023-03-01T07:57:34;102349.79;;;5.90;100.00
55277;BME280;41136;51.478;-2.610;2023-03-01T08:00:00;102348.76;;;6.94;100.00
55277;BME280;41136;51.478;-2.610;2023-03-01T08:02:25;102353.62;;;6.36;100.00
55277;BME280;41136;51.478;-2.610;2023-03-01T08:04:51;102358.24;;;4.28;100.00
55277;BME280;41136;51.478;-2.610;2023-03-01T08:07:16;102362.50;;;5.16;100.00
55277;BME280;41136;51.478;-2.610;2023-03-01T08:09:41;102358.17;;;4.41;100.00
55277;BME280;41136;51.478;-2.610;2023-03-01T08:12:07;102359.02;;;4.22;100.00
55277;BME280;41136;51.478;-2.610;2023-03-01T08:14:32;102357.58;;;4.05;100.00
55277;BME280;41136;51.478;-2.610;2023-03-01T08:16:58;102358.66;;;4.59;100.00
55277;BME280;41136;51.478;-2.610;2023-03-01T08:19:24;102353.81;;;5.26;100.00
55277;BME280;41136;51.478;-2.610;2023-03-01T08:21:49;102351.19;;;4.78;100.00
55277;BME280;41136;51.478;-2.610;2023-03-01T08:24:14;102351.43;;;3.21;100.00
55277;BME280;41136;51.478;-2.610;2023-03-01T08:26:40;102351.63;;;4.96;100.00
55277;BME280;41136;51.478;-2.610;2023-03-01T08:29:05;102352.20;;;4.95;100.00
55277;BME280;41136;51.478;-2.610;2023-03-01T08:31:34;102352.06;;;4.99;100.00
55277;BME280;41136;51.478;-2.610;2023-03-01T08:33:59;102358.76;;;3.84;100.00
55277;BME280;41136;51.478;-2.610;2023-03-01T08:36:23;102356.83;;;4.12;100.00
55277;BME280;41136;51.478;-2.610;2023-03-01T08:38:47;102355.16;;;4.93;100.00
55277;BME280;41136;51.478;-2.610;2023-03-01T08:41:13;102355.99;;;3.66;100.00
55277;BME280;41136;51.478;-2.610;2023-03-01T08:43:38;102354.24;;;4.29;100.00
55277;BME280;41136;51.478;-2.610;2023-03-01T08:46:04;102357.27;;;5.54;100.00
55277;BME280;41136;51.478;-2.610;2023-03-01T08:48:29;102352.70;;;4.60;100.00
55277;BME280;41136;51.478;-2.610;2023-03-01T08:50:54;102350.00;;;4.21;100.00
55277;BME280;41136;51.478;-2.610;2023-03-01T08:53:20;102348.25;;;5.04;100.00
55277;BME280;41136;51.478;-2.610;2023-03-01T08:55:45;102345.88;;;5.35;100.00
55277;BME280;41136;51.478;-2.610;2023-03-01T08:58:11;102346.18;;;6.14;100.00
55277;BME280;41136;51.478;-2.610;2023-03-01T09:00:36;102348.55;;;5.97;100.00
55277;BME280;41136;51.478;-2.610;2023-03-01T09:03:01;102342.62;;;5.42;100.00
55277;BME280;41136;51.478;-2.610;2023-03-01T09:05:27;102338.46;;;5.83;100.00
55277;BME280;41136;51.478;-2.610;2023-03-01T09:07:52;102338.17;;;5.85;100.00
55277;BME280;41136;51.478;-2.610;2023-03-01T09:10:18;102334.37;;;5.74;100.00
55277;BME280;41136;51.478;-2.610;2023-03-01T09:12:43;102331.55;;;5.22;100.00
55277;BME280;41136;51.478;-2.610;2023-03-01T09:15:10;102328.44;;;4.84;100.00
55277;BME280;41136;51.478;-2.610;2023-03-01T09:17:34;102322.96;;;6.13;100.00
55277;BME280;41136;51.478;-2.610;2023-03-01T09:20:05;102320.18;;;5.94;100.00
55277;BME280;41136;51.478;-2.610;2023-03-01T09:22:25;102322.18;;;6.28;100.00
55277;BME280;41136;51.478;-2.610;2023-03-01T09:24:50;102318.22;;;5.91;100.00
55277;BME280;41136;51.478;-2.610;2023-03-01T09:27:16;102316.96;;;5.68;100.00
55277;BME280;41136;51.478;-2.610;2023-03-01T09:29:41;102320.26;;;5.00;100.00
55277;BME280;41136;51.478;-2.610;2023-03-01T09:32:06;102317.76;;;5.07;100.00
55277;BME280;41136;51.478;-2.610;2023-03-01T09:34:31;102309.92;;;5.66;100.00
55277;BME280;41136;51.478;-2.610;2023-03-01T09:36:57;102308.26;;;5.95;100.00
55277;BME280;41136;51.478;-2.610;2023-03-01T09:39:22;102311.22;;;6.42;100.00
55277;BME280;41136;51.478;-2.610;2023-03-01T09:41:52;102305.08;;;5.67;100.00
55277;BME280;41136;51.478;-2.610;2023-03-01T09:44:22;102306.51;;;6.46;100.00
55277;BME280;41136;51.478;-2.610;2023-03-01T09:46:42;102304.69;;;6.01;100.00
55277;BME280;41136;51.478;-2.610;2023-03-01T09:49:10;102298.65;;;6.72;100.00
55277;BME280;41136;51.478;-2.610;2023-03-01T09:51:31;102304.38;;;6.74;100.00
55277;BME280;41136;51.478;-2.610;2023-03-01T09:53:55;102302.89;;;6.06;100.00
55277;BME280;41136;51.478;-2.610;2023-03-01T09:56:24;102298.54;;;6.46;100.00
55277;BME280;41136;51.478;-2.610;2023-03-01T09:58:50;102300.20;;;5.63;100.00
55277;BME280;41136;51.478;-2.610;2023-03-01T10:03:42;102296.85;;;5.76;100.00
55277;BME280;41136;51.478;-2.610;2023-03-01T10:06:08;102292.24;;;6.46;100.00
55277;BME280;41136;51.478;-2.610;2023-03-01T10:08:31;102289.71;;;5.60;100.00
55277;BME280;41136;51.478;-2.610;2023-03-01T10:10:53;102282.93;;;6.21;100.00
55277;BME280;41136;51.478;-2.610;2023-03-01T10:13:21;102274.85;;;6.62;100.00
55277;BME280;41136;51.478;-2.610;2023-03-01T10:15:47;102272.92;;;4.89;100.00
55277;BME280;41136;51.478;-2.610;2023-03-01T10:18:13;102269.22;;;5.71;100.00
55277;BME280;41136;51.478;-2.610;2023-03-01T10:20:43;102272.76;;;6.47;100.00
55277;BME280;41136;51.478;-2.610;2023-03-01T10:23:00;102269.57;;;5.63;100.00
55277;BME280;41136;51.478;-2.610;2023-03-01T10:25:39;102269.27;;;5.58;100.00
55277;BME280;41136;51.478;-2.610;2023-03-01T10:27:53;102269.04;;;5.45;100.00
55277;BME280;41136;51.478;-2.610;2023-03-01T10:30:20;102271.27;;;5.99;100.00
55277;BME280;41136;51.478;-2.610;2023-03-01T10:32:42;102267.05;;;5.29;100.00
55277;BME280;41136;51.478;-2.610;2023-03-01T10:35:15;102263.69;;;6.98;100.00
55277;BME280;41136;51.478;-2.610;2023-03-01T10:37:33;102268.41;;;5.69;100.00
55277;BME280;41136;51.478;-2.610;2023-03-01T10:40:03;102268.09;;;5.37;100.00
55277;BME280;41136;51.478;-2.610;2023-03-01T10:42:28;102266.08;;;4.69;100.00
55277;BME280;41136;51.478;-2.610;2023-03-01T10:44:49;102269.99;;;4.36;100.00
55277;BME280;41136;51.478;-2.610;2023-03-01T10:47:18;102269.82;;;4.91;100.00
55277;BME280;41136;51.478;-2.610;2023-03-01T10:52:15;102257.37;;;6.18;100.00
55277;BME280;41136;51.478;-2.610;2023-03-01T10:54:32;102252.77;;;5.00;100.00
55277;BME280;41136;51.478;-2.610;2023-03-01T10:56:58;102245.48;;;5.96;100.00
55277;BME280;41136;51.478;-2.610;2023-03-01T10:59:27;102238.98;;;6.72;100.00
55277;BME280;41136;51.478;-2.610;2023-03-01T11:04:13;102233.57;;;6.02;100.00
55277;BME280;41136;51.478;-2.610;2023-03-01T11:06:40;102239.38;;;5.17;100.00
55277;BME280;41136;51.478;-2.610;2023-03-01T11:09:13;102235.40;;;5.67;100.00
55277;BME280;41136;51.478;-2.610;2023-03-01T11:11:32;102231.76;;;5.23;100.00
55277;BME280;41136;51.478;-2.610;2023-03-01T11:13:57;102226.86;;;6.32;100.00
55277;BME280;41136;51.478;-2.610;2023-03-01T11:16:27;102218.08;;;4.86;100.00
55277;BME280;41136;51.478;-2.610;2023-03-01T11:21:10;102220.37;;;5.37;100.00
55277;BME280;41136;51.478;-2.610;2023-03-01T11:23:37;102217.70;;;5.63;100.00
55277;BME280;41136;51.478;-2.610;2023-03-01T11:26:05;102207.69;;;6.31;100.00
55277;BME280;41136;51.478;-2.610;2023-03-01T11:28:28;102203.11;;;6.55;100.00
55277;BME280;41136;51.478;-2.610;2023-03-01T11:30:55;102197.64;;;6.96;100.00
55277;BME280;41136;51.478;-2.610;2023-03-01T11:33:24;102195.58;;;6.55;100.00
55277;BME280;41136;51.478;-2.610;2023-03-01T11:35:47;102204.25;;;4.85;100.00
55277;BME280;41136;51.478;-2.610;2023-03-01T11:38:16;102199.86;;;5.81;100.00
55277;BME280;41136;51.478;-2.610;2023-03-01T11:40:38;102198.80;;;6.97;100.00
55277;BME280;41136;51.478;-2.610;2023-03-01T11:43:06;102197.36;;;6.87;100.00
55277;BME280;41136;51.478;-2.610;2023-03-01T11:45:28;102189.86;;;6.77;100.00
55277;BME280;41136;51.478;-2.610;2023-03-01T11:47:59;102187.58;;;6.80;100.00
55277;BME280;41136;51.478;-2.610;2023-03-01T11:50:24;102183.02;;;7.09;100.00
55277;BME280;41136;51.478;-2.610;2023-03-01T11:52:51;102181.67;;;7.31;100.00
55277;BME280;41136;51.478;-2.610;2023-03-01T11:55:19;102173.10;;;6.28;100.00
55277;BME280;41136;51.478;-2.610;2023-03-01T11:57:43;102169.96;;;6.59;100.00
55277;BME280;41136;51.478;-2.610;2023-03-01T12:00:06;102172.14;;;7.28;100.00
55277;BME280;41136;51.478;-2.610;2023-03-01T12:02:40;102170.66;;;6.24;100.00
55277;BME280;41136;51.478;-2.610;2023-03-01T12:05:00;102166.91;;;6.37;100.00
55277;BME280;41136;51.478;-2.610;2023-03-01T12:07:16;102164.18;;;5.91;100.00
55277;BME280;41136;51.478;-2.610;2023-03-01T12:09:50;102158.74;;;6.22;100.00
55277;BME280;41136;51.478;-2.610;2023-03-01T12:14:42;102151.59;;;5.72;100.00
55277;BME280;41136;51.478;-2.610;2023-03-01T12:17:08;102142.82;;;5.57;100.00
55277;BME280;41136;51.478;-2.610;2023-03-01T12:19:31;102141.70;;;5.54;100.00
55277;BME280;41136;51.478;-2.610;2023-03-01T12:22:00;102140.44;;;5.63;100.00
55277;BME280;41136;51.478;-2.610;2023-03-01T12:24:26;102132.93;;;5.41;100.00
55277;BME280;41136;51.478;-2.610;2023-03-01T12:26:43;102133.62;;;5.48;100.00
55277;BME280;41136;51.478;-2.610;2023-03-01T12:29:17;102134.58;;;4.81;100.00
55277;BME280;41136;51.478;-2.610;2023-03-01T12:31:41;102130.39;;;5.91;100.00
55277;BME280;41136;51.478;-2.610;2023-03-01T12:33:58;102131.17;;;5.36;100.00
55277;BME280;41136;51.478;-2.610;2023-03-01T12:36:29;102128.96;;;4.81;100.00
55277;BME280;41136;51.478;-2.610;2023-03-01T12:38:50;102118.27;;;4.79;100.00
55277;BME280;41136;51.478;-2.610;2023-03-01T12:41:23;102112.42;;;5.56;100.00
55277;BME280;41136;51.478;-2.610;2023-03-01T12:43:44;102113.43;;;5.08;100.00
55277;BME280;41136;51.478;-2.610;2023-03-01T12:46:10;102108.45;;;5.79;100.00